Strona główna
METAR-TAF:

METAR-TAF

Lotnisko :

Port lotniczy Kuwejt

Kuwejt, Kuwejt

Szerokość geograficzna: 29-13N, Długość geograficzna: 047-59E, wysokość: 55 m

Aktualna obserwacja pogody

Raport powstał 13 minut temu, godzina 04:00 UTC
Wiatr 5 kt od północny zachód
Temperatura 14°C
Wilgotność 72%
Ciśnienie 1018 hPa
Widzialność: 5000 m
(słaby) zmętnienie

METAR: OKBK 110400Z 32005KT 5000 -HZ NSC 14/09 Q1018 NOSIG

czas: 07:13 (04:13 UTC)

Prognoza

Raport powstał 5 godziny i 28 minut temu, godzina 22:45 UTC
Prognoza ważna od 11 godzina 00 UTC do 12 godzina 06 UTC
Wiatr 8 kt od północno-północny zachód
Widzialność: 7000 m
Przejściowo
od 11 godzina 00 UTC do 11 godzina 04 UTC
Wiatr 3 kt z kierunków zmiennych
Widzialność: 3000 m
zamglenie

TAF: OKBK 102245Z 1100/1206 34008KT 7000 NSC TEMPO 1100/1104 VRB03KT 3000 BR

Obserwacja i prognoza pogody dla ponad 4000 lotnisk (raport METAR i TAF).

Dostępne stacje oznaczono żółtymi i czerwonymi punktami na mapie.

Najedź kursorem aby zobaczyć nazwę stacji.

Kliknij aby zobaczyć obserwacje i prognozy pogody.

Aby zmienić mapę: kliknij na zielony przycisk z czarnym krzyżykiem, aby powiększyć; na zielony przycisk z myślnikiem, aby pomniejszyć; na zielone strzałki, aby przejść do map sąsiednich.


METAR-TAF: